createdAt,value
2019-05-13T00:00:10.095Z,3.70
2019-05-13T00:02:39.970Z,3.60
2019-05-13T00:05:09.817Z,3.60
2019-05-13T00:07:40.587Z,3.70
2019-05-13T00:10:10.066Z,3.60
2019-05-13T00:12:39.728Z,3.60
2019-05-13T00:15:09.840Z,3.70
2019-05-13T00:17:39.661Z,3.50
2019-05-13T00:20:09.776Z,3.50
2019-05-13T00:22:39.842Z,3.40
2019-05-13T00:25:09.511Z,3.30
2019-05-13T00:27:39.437Z,3.30
2019-05-13T00:30:09.999Z,3.30
2019-05-13T00:32:39.709Z,3.30
2019-05-13T00:35:09.506Z,3.30
2019-05-13T00:37:39.437Z,3.30
2019-05-13T00:40:09.219Z,3.30
2019-05-13T00:42:39.852Z,3.30
2019-05-13T00:45:09.821Z,3.20
2019-05-13T00:47:39.410Z,3.20
2019-05-13T00:50:09.390Z,3.10
2019-05-13T00:52:39.194Z,3.20
2019-05-13T00:55:10.241Z,3.20
2019-05-13T00:57:39.880Z,3.20
2019-05-13T01:00:09.663Z,3.20
2019-05-13T01:02:39.369Z,3.10
2019-05-13T01:05:09.385Z,3.10
2019-05-13T01:07:39.145Z,3.10
2019-05-13T01:10:09.573Z,3.00
2019-05-13T01:12:39.256Z,3.00
2019-05-13T01:15:09.160Z,3.00
2019-05-13T01:17:38.969Z,3.10
2019-05-13T01:20:08.859Z,2.90
2019-05-13T01:22:38.603Z,3.00
2019-05-13T01:25:08.503Z,2.90
2019-05-13T01:27:38.279Z,2.90
2019-05-13T01:30:08.774Z,2.90
2019-05-13T01:32:38.583Z,2.80
2019-05-13T01:35:08.497Z,2.80
2019-05-13T01:37:42.510Z,2.60
2019-05-13T01:40:09.577Z,2.70
2019-05-13T01:42:39.331Z,2.70
2019-05-13T01:45:09.381Z,2.60
2019-05-13T01:47:38.965Z,2.70
2019-05-13T01:50:08.961Z,2.60
2019-05-13T01:52:38.823Z,2.60
2019-05-13T01:55:08.952Z,2.60
2019-05-13T01:57:38.728Z,2.60
2019-05-13T02:00:09.807Z,2.50
2019-05-13T02:02:39.514Z,2.50
2019-05-13T02:05:09.323Z,2.50
2019-05-13T02:07:52.889Z,2.50
2019-05-13T02:10:14.314Z,2.40
2019-05-13T02:12:44.610Z,2.50
2019-05-13T02:15:15.271Z,2.50
2019-05-13T02:17:45.042Z,2.40
2019-05-13T02:20:15.146Z,2.40
2019-05-13T02:22:44.820Z,2.50
2019-05-13T02:25:14.676Z,2.30
2019-05-13T02:27:44.434Z,2.40
2019-05-13T02:30:16.283Z,2.30
2019-05-13T02:32:45.785Z,2.20
2019-05-13T02:35:15.619Z,2.20
2019-05-13T02:37:45.271Z,2.20
2019-05-13T02:40:14.956Z,2.20
2019-05-13T02:42:44.696Z,2.20
2019-05-13T02:45:14.560Z,2.10
2019-05-13T02:47:44.604Z,2.10
2019-05-13T02:50:15.391Z,2.10
2019-05-13T02:52:45.009Z,2.10
2019-05-13T02:55:14.858Z,2.10
2019-05-13T02:57:44.617Z,2.00
2019-05-13T03:00:14.393Z,2.00
2019-05-13T03:02:44.289Z,2.00
2019-05-13T03:05:14.436Z,2.00
2019-05-13T03:07:44.158Z,1.90
2019-05-13T03:10:14.523Z,1.80
2019-05-13T03:12:44.230Z,1.90
2019-05-13T03:15:14.211Z,1.80
2019-05-13T03:17:54.304Z,1.80
2019-05-13T03:20:24.071Z,1.90
2019-05-13T03:22:53.785Z,1.90
2019-05-13T03:25:23.653Z,1.80
2019-05-13T03:27:54.300Z,1.70
2019-05-13T03:30:25.515Z,1.70
2019-05-13T03:33:01.285Z,1.70
2019-05-13T03:35:27.799Z,1.70
2019-05-13T03:37:57.490Z,1.70
2019-05-13T03:40:28.698Z,1.60
2019-05-13T03:43:02.696Z,1.70
2019-05-13T03:45:33.100Z,1.60
2019-05-13T03:48:04.132Z,1.60
2019-05-13T03:50:34.960Z,1.50
2019-05-13T03:53:04.902Z,1.60
2019-05-13T03:55:34.713Z,1.60
2019-05-13T03:58:04.521Z,1.60
2019-05-13T04:00:34.285Z,1.40
2019-05-13T04:03:04.188Z,1.50
2019-05-13T04:05:33.955Z,1.50
2019-05-13T04:08:03.772Z,1.50
2019-05-13T04:10:33.705Z,1.50
2019-05-13T04:13:04.132Z,1.60
2019-05-13T04:15:33.998Z,1.60
2019-05-13T04:18:03.746Z,1.60
2019-05-13T04:20:33.915Z,1.60
2019-05-13T04:23:03.556Z,1.60
2019-05-13T04:25:33.271Z,1.60
2019-05-13T04:28:03.559Z,1.60
2019-05-13T04:30:33.501Z,1.70
2019-05-13T04:33:03.622Z,1.80
2019-05-13T04:35:33.627Z,2.10
2019-05-13T04:38:05.216Z,3.00
2019-05-13T04:40:36.800Z,3.70
2019-05-13T04:43:06.483Z,4.00
2019-05-13T04:45:38.110Z,4.60
2019-05-13T04:48:07.733Z,6.00
2019-05-13T04:50:37.579Z,7.10
2019-05-13T04:53:07.256Z,7.80
2019-05-13T04:55:36.976Z,8.30
2019-05-13T04:58:06.641Z,8.30
2019-05-13T05:01:08.141Z,8.90
2019-05-13T05:03:44.880Z,9.60
2019-05-13T05:06:12.762Z,10.50
2019-05-13T05:09:07.811Z,10.80
2019-05-13T05:12:03.074Z,11.50
2019-05-13T05:14:53.501Z,12.10
2019-05-13T05:17:43.805Z,12.60
2019-05-13T05:20:32.175Z,12.80
2019-05-13T05:23:22.752Z,13.10
2019-05-13T05:26:04.019Z,14.20
2019-05-13T05:28:45.397Z,14.60
2019-05-13T05:31:41.335Z,14.40
2019-05-13T05:34:41.632Z,14.50
2019-05-13T05:37:38.424Z,15.30
2019-05-13T05:40:08.367Z,15.10
2019-05-13T05:42:41.244Z,15.80
2019-05-13T05:45:12.925Z,15.80
2019-05-13T05:47:44.343Z,17.10
2019-05-13T05:50:14.345Z,17.70
2019-05-13T05:52:45.842Z,18.20
2019-05-13T05:55:16.315Z,18.20
2019-05-13T05:57:47.338Z,17.40
2019-05-13T06:00:17.290Z,18.60
2019-05-13T06:02:49.416Z,18.60
2019-05-13T06:05:21.228Z,19.50
2019-05-13T06:07:51.431Z,18.90
2019-05-13T06:10:22.524Z,18.10
2019-05-13T06:12:52.377Z,20.10
2019-05-13T06:15:22.619Z,18.90
2019-05-13T06:17:52.516Z,20.10
2019-05-13T06:20:22.333Z,20.80
2019-05-13T06:22:51.962Z,21.20
2019-05-13T06:25:23.255Z,21.40
2019-05-13T06:27:53.100Z,21.60
2019-05-13T06:30:22.896Z,21.60
2019-05-13T06:32:52.702Z,21.70
2019-05-13T06:35:23.506Z,21.70
2019-05-13T06:37:53.769Z,21.80
2019-05-13T06:40:23.507Z,21.80
2019-05-13T06:42:54.329Z,21.80
2019-05-13T06:45:23.956Z,21.90
2019-05-13T06:47:53.670Z,22.00
2019-05-13T06:50:24.323Z,21.90
2019-05-13T06:52:54.096Z,22.00
2019-05-13T06:55:23.756Z,22.00
2019-05-13T06:57:53.455Z,21.90
2019-05-13T07:00:23.406Z,21.80
2019-05-13T07:02:53.944Z,21.80
2019-05-13T07:05:22.881Z,21.70
2019-05-13T07:07:52.590Z,21.70
2019-05-13T07:10:22.291Z,21.70
2019-05-13T07:12:52.135Z,21.60
2019-05-13T07:15:22.531Z,21.60
2019-05-13T07:17:52.210Z,21.50
2019-05-13T07:20:22.768Z,21.50
2019-05-13T07:22:53.318Z,21.40
2019-05-13T07:25:23.182Z,21.40
2019-05-13T07:27:52.883Z,21.60
2019-05-13T07:30:37.353Z,21.70
2019-05-13T07:33:07.161Z,21.90
2019-05-13T07:35:38.334Z,22.00
2019-05-13T07:38:08.406Z,22.00
2019-05-13T07:40:41.509Z,22.10
2019-05-13T07:43:12.346Z,22.20
2019-05-13T07:45:42.597Z,22.20
2019-05-13T07:48:20.965Z,22.20
2019-05-13T07:50:56.772Z,22.20
2019-05-13T07:53:18.987Z,22.20
2019-05-13T07:55:47.386Z,22.20
2019-05-13T07:58:17.032Z,22.20
2019-05-13T08:00:46.820Z,22.40
2019-05-13T08:03:16.562Z,24.20
2019-05-13T08:05:46.424Z,22.80
2019-05-13T08:08:16.263Z,24.80
2019-05-13T08:10:46.050Z,25.00
2019-05-13T08:13:16.726Z,25.60
2019-05-13T08:15:46.539Z,26.20
2019-05-13T08:18:16.459Z,23.20
2019-05-13T08:20:52.512Z,22.20
2019-05-13T08:23:22.322Z,20.90
2019-05-13T08:25:52.097Z,21.70
2019-05-13T08:28:22.546Z,22.40
2019-05-13T08:30:52.700Z,18.00
2019-05-13T08:33:22.769Z,19.40
2019-05-13T08:35:54.189Z,21.10
2019-05-13T08:38:26.182Z,19.10
2019-05-13T08:40:56.033Z,18.50
2019-05-13T08:43:25.836Z,19.50
2019-05-13T08:45:55.875Z,18.50
2019-05-13T08:48:26.354Z,18.00
2019-05-13T08:50:56.587Z,22.40
2019-05-13T08:53:25.577Z,23.50
2019-05-13T08:55:55.450Z,21.40
2019-05-13T08:58:26.501Z,21.20
2019-05-13T09:00:59.019Z,19.40
2019-05-13T09:03:28.049Z,20.30
2019-05-13T09:05:58.250Z,20.40
2019-05-13T09:08:31.805Z,21.50
2019-05-13T09:11:01.722Z,20.60
2019-05-13T09:13:32.988Z,17.00
2019-05-13T09:16:03.315Z,15.80
2019-05-13T09:18:33.168Z,15.40
2019-05-13T09:21:02.968Z,15.00
2019-05-13T09:23:36.658Z,14.30
2019-05-13T09:26:06.540Z,14.60
2019-05-13T09:28:36.299Z,14.80
2019-05-13T09:31:06.178Z,15.20
2019-05-13T09:33:35.825Z,14.70
2019-05-13T09:36:05.595Z,14.10
2019-05-13T09:38:35.659Z,13.70
2019-05-13T09:41:12.465Z,13.60
2019-05-13T09:43:42.802Z,13.70
2019-05-13T09:46:12.561Z,13.60
2019-05-13T09:48:42.618Z,13.70
2019-05-13T09:51:12.596Z,14.20
2019-05-13T09:53:42.465Z,14.10
2019-05-13T09:56:12.297Z,13.60
2019-05-13T09:58:42.239Z,13.60
2019-05-13T10:01:12.546Z,13.60
2019-05-13T10:03:53.822Z,13.60
2019-05-13T10:06:15.333Z,13.80
2019-05-13T10:10:36.077Z,14.40
2019-05-13T10:13:12.004Z,19.40
2019-05-13T10:15:38.127Z,18.30
2019-05-13T10:18:07.120Z,15.30
2019-05-13T10:20:45.405Z,14.40
2019-05-13T10:23:21.874Z,14.50
2019-05-13T10:25:56.039Z,14.40
2019-05-13T10:28:26.926Z,14.50
2019-05-13T10:30:56.919Z,14.20
2019-05-13T10:33:27.144Z,14.00
2019-05-13T10:35:57.183Z,14.10
2019-05-13T10:38:27.861Z,14.50
2019-05-13T10:40:57.859Z,14.40
2019-05-13T10:43:31.901Z,14.30
2019-05-13T10:45:58.990Z,14.40
2019-05-13T10:48:28.741Z,14.10
2019-05-13T10:50:58.697Z,14.30
2019-05-13T10:53:28.359Z,14.10
2019-05-13T10:55:58.201Z,14.10
2019-05-13T10:58:27.968Z,14.10
2019-05-13T11:00:57.898Z,13.90
2019-05-13T11:03:27.674Z,14.10
2019-05-13T11:05:58.396Z,14.00
2019-05-13T11:08:28.816Z,14.10
2019-05-13T11:11:02.076Z,14.30
2019-05-13T11:13:52.128Z,14.60
2019-05-13T11:16:08.668Z,14.50
2019-05-13T11:18:38.383Z,14.10
2019-05-13T11:21:08.334Z,14.50
2019-05-13T11:23:38.006Z,14.90
2019-05-13T11:26:07.551Z,14.50
2019-05-13T11:28:37.421Z,14.50
2019-05-13T11:31:07.105Z,14.30
2019-05-13T11:33:36.781Z,14.40
2019-05-13T11:36:06.539Z,14.20
2019-05-13T11:38:36.364Z,14.50
2019-05-13T11:41:05.981Z,14.50
2019-05-13T11:43:35.681Z,14.40
2019-05-13T11:46:05.475Z,14.40
2019-05-13T11:48:35.000Z,14.80
2019-05-13T11:51:04.752Z,14.70
2019-05-13T11:53:37.452Z,14.70
2019-05-13T11:56:06.108Z,14.80
2019-05-13T11:58:35.913Z,14.60
2019-05-13T12:01:06.114Z,14.30
2019-05-13T12:03:35.870Z,14.40
2019-05-13T12:06:05.867Z,14.40
2019-05-13T12:08:35.541Z,14.60
2019-05-13T12:11:05.262Z,14.90
2019-05-13T12:13:35.081Z,15.00
2019-05-13T12:16:07.245Z,14.60
2019-05-13T12:18:43.204Z,14.20
2019-05-13T12:21:08.471Z,14.20
2019-05-13T12:23:38.156Z,14.40
2019-05-13T12:26:07.888Z,14.30
2019-05-13T12:28:37.491Z,14.20
2019-05-13T12:31:07.204Z,14.20
2019-05-13T12:33:37.064Z,14.30
2019-05-13T12:36:06.735Z,14.50
2019-05-13T12:38:36.611Z,14.50
2019-05-13T12:41:08.671Z,14.40
2019-05-13T12:43:38.404Z,14.10
2019-05-13T12:46:08.270Z,14.30
2019-05-13T12:48:39.036Z,14.10
2019-05-13T12:51:08.871Z,14.60
2019-05-13T12:53:38.636Z,14.50
2019-05-13T12:56:08.680Z,14.50
2019-05-13T12:58:38.386Z,14.40
2019-05-13T13:01:08.173Z,14.50
2019-05-13T13:03:38.105Z,14.40
2019-05-13T13:08:47.513Z,14.60
2019-05-13T13:11:10.971Z,14.50
2019-05-13T13:13:58.157Z,14.20
2019-05-13T13:16:12.779Z,14.30
2019-05-13T13:18:43.484Z,14.50
2019-05-13T13:23:44.858Z,14.20
2019-05-13T13:26:22.063Z,14.30
2019-05-13T13:28:55.760Z,14.20
2019-05-13T13:31:25.166Z,14.70
2019-05-13T13:33:55.859Z,14.80
2019-05-13T13:36:25.729Z,14.70
2019-05-13T13:38:56.394Z,14.10
2019-05-13T13:41:25.953Z,14.10
2019-05-13T13:43:55.640Z,13.90
2019-05-13T13:46:36.941Z,14.30
2019-05-13T13:48:57.047Z,14.20
2019-05-13T13:51:27.284Z,14.20
2019-05-13T13:53:57.228Z,14.10
2019-05-13T13:56:27.010Z,14.20
2019-05-13T13:58:56.817Z,14.10
2019-05-13T14:01:27.586Z,14.20
2019-05-13T14:03:57.479Z,14.60
2019-05-13T14:07:09.328Z,14.10
2019-05-13T14:07:12.996Z,14.10
2019-05-13T14:08:58.397Z,14.20
2019-05-13T14:11:28.238Z,14.10
2019-05-13T14:13:57.998Z,14.00
2019-05-13T14:16:32.480Z,14.30
2019-05-13T14:19:00.328Z,14.50
2019-05-13T14:21:32.265Z,14.40
2019-05-13T14:24:02.599Z,14.50
2019-05-13T14:26:33.224Z,14.50
2019-05-13T14:29:03.066Z,14.60
2019-05-13T14:31:32.837Z,14.60
2019-05-13T14:34:03.620Z,14.30
2019-05-13T14:36:33.581Z,13.90
2019-05-13T14:39:04.770Z,13.80
2019-05-13T14:41:34.492Z,14.10
2019-05-13T14:44:04.215Z,14.50
2019-05-13T14:46:46.653Z,14.20
2019-05-13T14:49:05.182Z,14.10
2019-05-13T14:51:35.792Z,13.90
2019-05-13T14:54:07.863Z,14.10
2019-05-13T14:56:37.503Z,14.10
2019-05-13T14:59:08.578Z,13.90
2019-05-13T15:01:38.386Z,13.90
2019-05-13T15:04:08.439Z,14.40
2019-05-13T15:06:38.106Z,14.40
2019-05-13T15:09:08.171Z,14.20
2019-05-13T15:11:37.831Z,14.10
2019-05-13T15:14:07.800Z,13.90
2019-05-13T15:16:37.503Z,13.70
2019-05-13T15:19:07.319Z,13.60
2019-05-13T15:21:36.986Z,13.80
2019-05-13T15:24:06.936Z,14.10
2019-05-13T15:26:36.627Z,13.90
2019-05-13T15:29:07.901Z,13.90
2019-05-13T15:31:37.605Z,14.00
2019-05-13T15:34:07.358Z,14.00
2019-05-13T15:36:37.117Z,14.10
2019-05-13T15:39:07.380Z,14.20
2019-05-13T15:41:37.321Z,13.80
2019-05-13T15:44:07.074Z,14.00
2019-05-13T15:46:36.775Z,13.90
2019-05-13T15:49:06.456Z,13.80
2019-05-13T15:51:36.320Z,13.70
2019-05-13T15:54:05.905Z,13.70
2019-05-13T15:56:35.747Z,13.90
2019-05-13T15:59:08.874Z,13.80
2019-05-13T16:01:37.367Z,13.70
2019-05-13T16:04:07.215Z,13.70
2019-05-13T16:06:36.956Z,13.70
2019-05-13T16:09:07.775Z,13.50
2019-05-13T16:11:37.967Z,13.80
2019-05-13T16:14:11.453Z,13.90
2019-05-13T16:16:41.660Z,13.90
2019-05-13T16:19:11.780Z,13.90
2019-05-13T16:21:41.790Z,13.90
2019-05-13T16:24:12.428Z,13.90
2019-05-13T16:26:43.052Z,13.90
2019-05-13T16:29:12.934Z,13.80
2019-05-13T16:31:42.692Z,13.80
2019-05-13T16:34:13.454Z,13.70
2019-05-13T16:36:43.505Z,13.60
2019-05-13T16:39:13.192Z,13.60
2019-05-13T16:41:43.015Z,13.50
2019-05-13T16:44:12.892Z,13.50
2019-05-13T16:46:43.667Z,13.90
2019-05-13T16:49:12.572Z,14.00
2019-05-13T16:51:42.933Z,13.80
2019-05-13T16:54:12.070Z,13.70
2019-05-13T16:56:42.253Z,13.80
2019-05-13T16:59:12.166Z,13.90
2019-05-13T17:01:42.122Z,14.10
2019-05-13T17:04:12.594Z,14.20
2019-05-13T17:06:42.585Z,14.40
2019-05-13T17:09:12.396Z,14.10
2019-05-13T17:11:42.290Z,14.10
2019-05-13T17:14:12.003Z,14.30
2019-05-13T17:16:41.883Z,14.50
2019-05-13T17:19:12.041Z,14.60
2019-05-13T17:21:42.213Z,14.40
2019-05-13T17:24:12.655Z,14.20
2019-05-13T17:26:42.506Z,14.50
2019-05-13T17:29:12.557Z,14.40
2019-05-13T17:31:43.989Z,14.10
2019-05-13T17:34:13.579Z,13.90
2019-05-13T17:36:43.526Z,13.60
2019-05-13T17:39:13.288Z,13.30
2019-05-13T17:41:43.085Z,13.00
2019-05-13T17:44:14.546Z,12.80
2019-05-13T17:46:44.308Z,12.70
2019-05-13T17:49:14.034Z,12.60
2019-05-13T17:51:43.625Z,12.30
2019-05-13T17:54:13.348Z,12.10
2019-05-13T17:56:43.075Z,12.00
2019-05-13T17:59:15.825Z,11.90
2019-05-13T18:01:44.446Z,11.80
2019-05-13T18:04:15.244Z,11.70
2019-05-13T18:06:44.972Z,11.70
2019-05-13T18:09:14.640Z,11.60
2019-05-13T18:11:44.419Z,11.50
2019-05-13T18:14:15.094Z,11.50
2019-05-13T18:16:43.999Z,11.50
2019-05-13T18:19:13.581Z,11.30
2019-05-13T18:21:43.527Z,11.40
2019-05-13T18:24:13.191Z,11.30
2019-05-13T18:26:43.131Z,11.80
2019-05-13T18:29:12.785Z,11.90
2019-05-13T18:31:42.548Z,11.80
2019-05-13T18:34:12.429Z,11.70
2019-05-13T18:36:42.790Z,11.60
2019-05-13T18:39:13.496Z,11.60
2019-05-13T18:41:43.139Z,11.50
2019-05-13T18:44:15.584Z,11.40
2019-05-13T18:46:45.236Z,11.10
2019-05-13T18:49:16.487Z,10.70
2019-05-13T18:51:46.054Z,10.50
2019-05-13T18:54:18.537Z,10.40
2019-05-13T18:56:52.057Z,10.40
2019-05-13T19:01:06.743Z,12.60
2019-05-13T19:03:37.360Z,11.10
2019-05-13T19:06:07.007Z,10.60
2019-05-13T19:08:36.751Z,10.30
2019-05-13T19:11:06.637Z,10.20
2019-05-13T19:13:36.400Z,10.10
2019-05-13T19:16:06.357Z,10.00
2019-05-13T19:18:36.071Z,10.00
2019-05-13T19:21:05.806Z,9.70
2019-05-13T19:23:35.558Z,9.80
2019-05-13T19:26:05.406Z,9.60
2019-05-13T19:28:35.130Z,9.50
2019-05-13T19:31:04.958Z,9.50
2019-05-13T19:33:34.718Z,9.40
2019-05-13T19:36:04.338Z,9.40
2019-05-13T19:38:34.069Z,9.20
2019-05-13T19:41:03.832Z,9.10
2019-05-13T19:43:33.538Z,9.00
2019-05-13T19:46:03.277Z,8.90
2019-05-13T19:48:33.024Z,9.00
2019-05-13T19:51:02.831Z,8.90
2019-05-13T19:53:32.534Z,8.80
2019-05-13T19:56:02.250Z,8.90
2019-05-13T19:58:32.519Z,8.90
2019-05-13T20:01:02.387Z,8.70
2019-05-13T20:03:32.234Z,8.50
2019-05-13T20:06:02.308Z,8.50
2019-05-13T20:08:33.205Z,8.40
2019-05-13T20:11:02.853Z,8.30
2019-05-13T20:13:32.555Z,8.30
2019-05-13T20:16:02.841Z,8.30
2019-05-13T20:18:32.836Z,8.30
2019-05-13T20:21:02.581Z,8.20
2019-05-13T20:23:32.535Z,8.20
2019-05-13T20:26:02.540Z,8.10
2019-05-13T20:28:32.539Z,8.00
2019-05-13T20:31:03.620Z,8.00
2019-05-13T20:33:37.979Z,7.90
2019-05-13T20:36:04.984Z,7.90
2019-05-13T20:38:34.722Z,7.90
2019-05-13T20:41:04.567Z,7.80
2019-05-13T20:43:34.448Z,7.80
2019-05-13T20:46:04.809Z,7.70
2019-05-13T20:48:34.640Z,7.70
2019-05-13T20:51:04.410Z,7.50
2019-05-13T20:53:34.049Z,7.60
2019-05-13T20:56:03.934Z,7.60
2019-05-13T20:58:33.700Z,7.60
2019-05-13T21:01:03.845Z,7.60
2019-05-13T21:03:33.616Z,7.50
2019-05-13T21:06:03.521Z,7.50
2019-05-13T21:08:33.938Z,7.50
2019-05-13T21:11:04.212Z,7.50
2019-05-13T21:13:34.238Z,7.50
2019-05-13T21:16:04.264Z,7.30
2019-05-13T21:18:33.903Z,7.20
2019-05-13T21:21:03.650Z,7.30
2019-05-13T21:23:33.471Z,7.20
2019-05-13T21:26:03.185Z,7.10
2019-05-13T21:28:33.214Z,7.10
2019-05-13T21:31:02.945Z,7.20
2019-05-13T21:33:34.302Z,7.00
2019-05-13T21:36:04.146Z,7.10
2019-05-13T21:38:35.322Z,7.00
2019-05-13T21:41:06.355Z,6.70
2019-05-13T21:43:36.062Z,6.70
2019-05-13T21:46:05.846Z,6.60
2019-05-13T21:48:35.685Z,6.70
2019-05-13T21:51:05.407Z,6.80
2019-05-13T21:53:35.129Z,6.70
2019-05-13T21:56:04.900Z,6.70
2019-05-13T21:58:34.674Z,6.60
2019-05-13T22:01:04.359Z,6.60
2019-05-13T22:03:34.171Z,6.50
2019-05-13T22:06:03.940Z,6.50
2019-05-13T22:08:33.694Z,6.50
2019-05-13T22:11:03.521Z,6.30
2019-05-13T22:13:33.484Z,6.20
2019-05-13T22:16:03.193Z,6.20
2019-05-13T22:18:32.976Z,6.30
2019-05-13T22:21:02.654Z,6.10
2019-05-13T22:23:32.419Z,6.00
2019-05-13T22:26:02.120Z,6.00
2019-05-13T22:28:31.800Z,5.90
2019-05-13T22:31:01.709Z,5.90
2019-05-13T22:33:32.635Z,5.90
2019-05-13T22:36:03.360Z,5.90
2019-05-13T22:38:34.564Z,5.90
2019-05-13T22:41:05.875Z,6.00
2019-05-13T22:43:36.558Z,5.90
2019-05-13T22:46:06.242Z,6.10
2019-05-13T22:48:36.051Z,5.90
2019-05-13T22:51:05.941Z,5.70
2019-05-13T22:53:35.680Z,5.50
2019-05-13T22:56:05.408Z,5.80
2019-05-13T22:58:35.159Z,5.70
2019-05-13T23:01:04.984Z,5.60
2019-05-13T23:03:34.784Z,5.60
2019-05-13T23:06:05.893Z,5.50
2019-05-13T23:08:36.460Z,5.30
2019-05-13T23:11:06.239Z,5.40
2019-05-13T23:13:35.981Z,5.40
2019-05-13T23:16:06.920Z,5.30
2019-05-13T23:18:36.679Z,5.30
2019-05-13T23:21:06.491Z,5.20
2019-05-13T23:23:36.305Z,5.30
2019-05-13T23:26:06.036Z,5.20
2019-05-13T23:28:35.790Z,5.00
2019-05-13T23:31:05.581Z,4.90
2019-05-13T23:33:38.461Z,5.00
2019-05-13T23:36:08.130Z,4.90
2019-05-13T23:38:37.784Z,4.90
2019-05-13T23:41:07.477Z,5.10
2019-05-13T23:43:37.141Z,5.00
2019-05-13T23:46:06.934Z,4.80
2019-05-13T23:48:36.657Z,4.90
2019-05-13T23:51:06.291Z,4.80
2019-05-13T23:53:36.048Z,4.80
2019-05-13T23:56:05.647Z,4.80
2019-05-13T23:58:35.316Z,4.90
